Matthew Stewart

Jefe de ojeadores - Luton Town
3 Dic 2028
Domingo
Continuar

Personalidad

Adaptabilidad (9) Ambición (3) Controversia (13) Lealtad (8) Presión (9) Profesionalismo (11) Deportividad (18) Temperamento (6)

Perfil

Estilo de dirección Democrático
Licencia Nacional A
Determinación 5
Gestión de personas 8
Motivación 4
Disciplina 6
Satisfacción laboral
100%
Fatiga
0%
Cargo Jefe de ojeadores
Salario 16.4K p/s
Contrato 14.03.2029

Rendimiento

Comportamiento Bueno
Efectividad del entrenamiento
51%
Desarrollo de jugadores
45%
Prevención de lesiones
20%
Implementación táctica
40%

Eventos recientes

Evaluó a un jugador ahora
Asistió a una reunión de captación ahora
Asistió a una reunión de captación ahora
Recomendó un objetivo de fichaje ahora
Recomendó un objetivo de fichaje ahora
Recomendó un objetivo de fichaje ahora
Evaluó a un jugador ahora
Evaluó a un jugador ahora

Actualmente siguiendo

188
Jugador Club Estado Habilidad Confianza Observado Última observación Último voto
Chimobi Igwilo Rangers International Activo 101 / 99 40% 5 02.12.2028 -
Honest Ahanor Atalanta Activo 145 / 141 40% 10 02.12.2028 -
Robinio Vaz Modena Activo 128 / 129 40% 1 02.12.2028 -
Nadir Sánchez Central Córdoba SdE Activo 97 / 101 40% 3 01.12.2028 -
Ayanda Tibe Gor Mahia Activo 84 / 99 40% 1 01.12.2028 -
Santiago Cuellar Central Norte Activo 94 / 86 40% 1 01.12.2028 -
Alex Verón Vélez Activo 111 / 121 40% 3 29.11.2028 -
Nupe Godstime Bayelsa United Activo 96 / 90 40% 2 29.11.2028 -
Joseph Abah Remo Stars Activo 97 / 83 40% 1 29.11.2028 -
Christos Mouzakitis Hull City Activo 137 / 154 40% 9 28.11.2028 -
Santiago Segovia Rosario Central Activo 108 / 126 40% 2 28.11.2028 -
Harry Gray Harrogate Town Activo 135 / 140 40% 1 28.11.2028 -
Trey Nyoni Rotherham United Activo 142 / 149 40% 4 27.11.2028 -
Tiziano Cabrera Central Norte Activo 95 / 102 40% 1 27.11.2028 -
Idris Ajiya Nasarawa United Activo 81 / 103 40% 1 23.11.2028 -
Musa Malik Ikorodu City Activo 89 / 104 40% 3 21.11.2028 -
Matías Arias Vélez Activo 107 / 126 40% 1 21.11.2028 -
Lisandro Piñero Banfield Activo 123 / 128 40% 1 20.11.2028 -
Ruben Ramos LA Galaxy Activo 112 / 124 40% 2 19.11.2028 -
Gideon Manaseh Ikorodu City Activo 87 / 106 40% 1 17.11.2028 -
Ayyoub Bouaddi Stoke City Activo 159 / 163 40% 1 17.11.2028 -
Jan Bürger Northampton Town Activo 122 / 131 40% 11 14.11.2028 -
Riquelme Thompson-Jones Accrington Stanley Activo 107 / 130 40% 8 14.11.2028 -
Louis Page Leicester City Activo 138 / 138 40% 1 14.11.2028 -
Drew Baiera New York City Activo 96 / 118 40% 2 13.11.2028 -
Veljko Milosavljević Bournemouth Activo 144 / 145 40% 1 13.11.2028 -
Josh King Newcastle United Activo 145 / 156 40% 2 12.11.2028 -
Matías Satas Grimsby Town Activo 101 / 111 40% 1 12.11.2028 -
Diego León Rotherham United Activo 133 / 121 40% 1 11.11.2028 -
Jack Shorrock Port Vale Activo 107 / 122 40% 1 11.11.2028 -
José Neto Benfica Activo 130 / 134 40% 1 09.11.2028 -
Tyson Pearce St. Louis CITY SC Activo 95 / 95 40% 1 09.11.2028 -
Estanislao López Colón Activo 84 / 97 40% 1 09.11.2028 -
Felipe Pujol Vélez Activo 110 / 117 40% 1 07.11.2028 -
Facundo Rodríguez Talleres Activo 95 / 84 40% 1 29.08.2028 -
Omar Bautista Gerez Central Córdoba SdE Activo 94 / 85 40% 1 29.08.2028 -
Brayan Aragón Barnsley Perdido 107 / 102 76% 1 28.08.2028 -
Reyes Cleary Bromley Informe listo 116 / 126 76% 1 07.08.2028 -
Tyler Fletcher Rotherham United Activo 115 / 110 40% 5 23.06.2028 -
Luca Williams-Barnett Walsall Activo 121 / 131 40% 1 23.06.2028 -
Ryan Kavuma-McQueen Accrington Stanley Activo 122 / 131 40% 1 23.06.2028 -
Josh Nichols Oldham Athletic Activo 127 / 121 40% 8 17.06.2028 -
Kiani Inge Groningen Activo 112 / 127 40% 6 17.06.2028 -
Simone Suppa Virtus Verona Activo 88 / 85 40% 4 30.05.2028 -
Martim Cunha Porto Activo 107 / 123 40% 9 27.05.2028 -
Hosea Michael Remo Stars Activo 93 / 100 40% 6 25.05.2028 -
Andrey Ivlev Nizhniy Novgorod Perdido 117 / 127 40% 4 22.05.2028 -
Joel Ezra Enyimba Activo 94 / 89 40% 3 21.05.2028 -
Daniel Banjaqui Benfica Activo 128 / 127 40% 9 20.05.2028 -
Giovanni Leoni Lincoln City Activo 139 / 135 40% 8 19.05.2028 -
Abubakar Adams Aduana Stars Activo 87 / 86 40% 1 14.05.2028 -
Nicolò Moranduzzo Renate Activo 95 / 102 40% 1 14.05.2028 -
Jorthy Mokio ADO Den Haag Activo 129 / 141 40% 7 02.05.2028 -
Eko Solomon Leixões Activo 79 / 84 40% 2 01.05.2028 -
Olivier Leroux Mouscron Activo 107 / 109 40% 9 30.04.2028 -
Miguel Figueiredo Benfica Activo 120 / 132 40% 2 25.04.2028 -
Josh Acheampong Everton Activo 137 / 141 40% 3 21.04.2028 -
Matvey Bardachev Zenit Activo 109 / 125 40% 3 10.04.2028 -
Bernardo Lima Porto Activo 108 / 123 40% 5 05.04.2028 -
Tobiáš Pališčák Zlin Activo 107 / 100 40% 1 03.03.2028 -
Ayden Heaven Portsmouth Activo 140 / 149 40% 1 03.03.2028 -
Colin Guske Orlando City Activo 93 / 100 40% 3 29.02.2028 -
Zane Albarus Shrewsbury Town Activo 93 / 105 40% 11 23.02.2028 -
Amine Boukamir Charleroi Activo 102 / 115 40% 4 16.02.2028 -
Esquerdinha Notts County Activo 114 / 133 40% 2 11.02.2028 -
Charlie Gray Fleetwood Town Activo 95 / 107 40% 5 08.02.2028 -
Jonny Shore New York City Activo 106 / 118 40% 2 08.02.2028 -
Aaron Morley Wycombe Wanderers Activo 121 / 121 76% 1 17.01.2028 -
Snyder Brunell Seattle Sounders Activo 98 / 102 40% 1 06.01.2028 -
Mao Hosoya Santos Activo 134 / 135 67% 1 01.01.2028 Aprobar
Giovanni Baroni Talleres Activo 109 / 135 40% 1 31.12.2027 -
Ibrahim Fullah Charlton Athletic Activo 117 / 129 40% 1 31.12.2027 -
Jenson Jones Walsall Activo 102 / 97 40% 14 02.08.2027 -
Mpho Khethang FC Diarra Activo 81 / 79 40% 5 02.08.2027 -
Maldini Kacurri Grimsby Town Activo 89 / 103 40% 1 02.08.2027 -
Onyeuche Ujunwa Ikorodu City Activo 96 / 96 40% 1 19.07.2027 -
Pedro Vian Seewald Dolomiti Bellunesi Activo 96 / 96 40% 1 05.07.2027 -
Leandro Martins Benfica Activo 100 / 97 40% 2 22.06.2027 -
George Hoddle Cambridge United Activo 82 / 97 40% 1 22.06.2027 -
Rhys Walters Port Vale Activo 97 / 103 40% 1 31.05.2027 -
Ahmed Akinyele Remo Stars Activo 99 / 111 40% 2 30.05.2027 -
Daniel Idoko Ikorodu City Activo 92 / 91 40% 1 30.05.2027 -
Chari Giwa US Bougouni Activo 77 / 76 40% 5 28.05.2027 -
Sascha Britschgi AC Milan Activo 120 / 133 40% 5 28.05.2027 -
Riley Owen Stevenage Activo 100 / 100 40% 4 26.05.2027 -
Lucas Bergvall Tottenham Activo 154 / 151 40% 8 26.05.2027 -
Kazunari Kita Real Sociedad Activo 96 / 106 40% 7 26.05.2027 -
Rivaldo Mkhize Black Aces Activo 80 / 87 40% 7 22.05.2027 -
Gonçalo Oliveira Benfica Activo 117 / 111 40% 6 22.05.2027 -
Caleb Yirenkyi Coventry City Activo 143 / 145 40% 3 21.05.2027 -
Ezra Mayers West Ham United Activo 112 / 129 40% 5 20.05.2027 -
Tommaso Cecotti Carpi Activo 89 / 93 40% 3 14.05.2027 -
Teboho Mokoena Black Aces Activo 79 / 89 40% 4 13.05.2027 -
Andrea Bertoncini Triestina Activo 84 / 86 40% 1 12.05.2027 -
Daniel Dennis Ikorodu City Activo 87 / 104 40% 1 09.05.2027 -
Godwin Oham Warri Wolves Activo 91 / 83 40% 1 07.05.2027 -
Kamaldeen Atiemo Wa All Stars Activo 101 / 103 40% 9 04.05.2027 -
Tiago Freitas Benfica Activo 106 / 121 40% 6 03.05.2027 -
Olalekan Adeleke Remo Stars Activo 88 / 100 40% 1 29.04.2027 -
Samuele di Benedetto Twente Activo 111 / 128 40% 4 20.04.2027 -
Afriyie Sulemana WAFA Activo 97 / 92 40% 4 16.04.2027 -
Edwin Asamoah Berekum Chelsea Activo 84 / 91 40% 6 14.04.2027 -
Ahmed Zaki Masr El Makasa Activo 79 / 90 40% 1 08.04.2027 -
David Ozoh Derby County Activo 126 / 117 40% 4 06.04.2027 -
Alessandro Zoboletti Sambenedettese Activo 95 / 96 40% 1 30.03.2027 -
Dean Jali Platinum Stars Activo 92 / 109 40% 3 25.03.2027 -
Cemran Dansin Orlando Pirates Activo 108 / 129 40% 5 20.03.2027 -
Maxim Radchenko Rostov Activo 78 / 96 40% 1 06.03.2027 -
Samuele Diodato Lumezzane Activo 96 / 99 40% 1 04.03.2027 -
James Dornelly Peterborough United Activo 100 / 116 40% 1 24.02.2027 -
Mbekezeli Mbokazi Chicago Fire Activo 132 / 117 40% 2 04.02.2027 -
Adam Randell Bristol City Activo 130 / 136 40% 1 26.01.2027 -
Florentino Luís Ipswich Town Activo 137 / 135 40% 1 26.01.2027 -
Kyle Wootton Stockport County Activo 113 / 126 69% 1 18.01.2027 Aprobar
Sampson Dweh Mallorca Activo 133 / 134 66% 1 01.01.2027 Aprobar
Dale Taylor Blackpool Activo 114 / 120 40% 1 30.12.2026 -
Ilyas Ansah Hull City Activo 133 / 140 40% 1 29.12.2026 -
Sam Greenwood Bristol City Activo 119 / 118 40% 1 28.12.2026 -
Joshua Zirkzee Manchester United Activo 140 / 152 40% 1 28.12.2026 -
Wandile Duba ASO Chlef Activo 107 / 106 40% 1 27.12.2026 -
Armstrong Oko-Flex Levski Activo 123 / 114 40% 1 26.12.2026 -
Jesus Ferreira Seattle Sounders Activo 135 / 122 40% 3 23.12.2026 -
Tadeo Allende Inter Miami CF Activo 122 / 128 40% 3 22.12.2026 -
Evidence Makgopa Orlando Pirates Activo 114 / 126 40% 3 18.12.2026 -
Eddie Nketiah Crystal Palace Activo 141 / 136 40% 3 17.12.2026 -
Kévin Denkey FC Cincinnati Activo 126 / 128 40% 5 15.12.2026 -
Talles Magno New York City Activo 121 / 121 40% 5 15.12.2026 -
Joe Gelhardt Hull City Activo 126 / 124 40% 2 15.12.2026 -
Malik Mothersille Stockport County Activo 112 / 104 40% 1 14.12.2026 -
Marcelo Allende Mamelodi Sundowns Activo 129 / 126 40% 2 12.12.2026 -
Yeangel Montero Naxxar Lions Activo 103 / 96 40% 1 12.12.2026 -
Reda Khadra Qarabag Activo 125 / 126 40% 1 12.12.2026 -
Stephen Amankona Aduana Stars Activo 100 / 82 40% 1 10.12.2026 -
Erick Dolly Black Aces Activo 115 / 116 40% 4 09.12.2026 -
David Da Costa Portland Timbers Activo 122 / 122 40% 1 08.12.2026 -
Max Bird Birmingham Activo 128 / 129 40% 1 08.12.2026 -
Diego Luna Real Salt Lake Activo 123 / 116 40% 1 08.12.2026 -
Sorba Thomas Stoke City Activo 134 / 127 40% 2 04.12.2026 -
Tyrese Campbell Sheffield United Activo 132 / 128 40% 3 02.12.2026 -
Bongani Zungu Ajax Cape Town Activo 134 / 128 40% 5 02.12.2026 -
Ali Ahmed Norwich City Activo 117 / 131 40% 2 02.12.2026 -
Marezi Portsmouth Activo 114 / 116 40% 1 29.11.2026 -
Etiosa Ighodaro Kaizer Chiefs Activo 98 / 108 40% 2 28.11.2026 -
Sota Kitano Red Bull Salzburg Activo 123 / 128 40% 1 27.11.2026 Más información
Scott Twine Bristol City Activo 124 / 114 40% 1 24.11.2026 -
Jack McGlynn Stoke City Activo 134 / 128 40% 1 23.11.2026 -
Paschal Durugbor El Dakhleya Activo 94 / 83 40% 1 21.11.2026 -
Oswin Appollis Orlando Pirates Activo 111 / 115 40% 3 19.11.2026 -
Jason Knight Bristol City Activo 130 / 118 40% 1 14.11.2026 -
Antony Portland Timbers Activo 137 / 144 40% 2 12.11.2026 -
Yousef Salech Cardiff City Activo 122 / 130 40% 1 12.11.2026 -
Iván Angulo Orlando City Activo 121 / 136 40% 1 10.11.2026 -
Alhassan Yusuf New England Revolution Activo 123 / 136 40% 1 10.11.2026 -
Martín Ojeda Orlando City Activo 133 / 140 40% 4 09.11.2026 -
Zach Ryan Ismaily Activo 98 / 95 40% 1 09.11.2026 -
Santiago Rodríguez Columbus Crew Activo 115 / 139 40% 2 07.11.2026 -
Jens Petter Hauge Bodo/Glimt Activo 141 / 139 40% 1 06.11.2026 -
Bradley Zwane SuperSport United Activo 118 / 119 40% 1 06.11.2026 -
Cheikh Sabaly Vancouver Whitecaps Activo 131 / 113 40% 3 04.11.2026 -
Thalente Mbatha Orlando Pirates Activo 121 / 100 40% 1 03.11.2026 -
Telasco Segovia Inter Miami CF Activo 129 / 131 40% 2 28.10.2026 -
Indiana Vassilev Philadelphia Union Activo 129 / 127 40% 2 26.10.2026 -
Jackson Muleka Konyaspor Activo 139 / 131 40% 1 26.10.2026 -
Bénie Traoré New York City Activo 125 / 131 40% 2 25.10.2026 -
Dejan Joveljić Seattle Sounders Activo 141 / 124 40% 1 24.10.2026 -
Jeong Sang-Bin St. Louis CITY SC Activo 101 / 120 40% 1 23.10.2026 -
Elias Achouri San Diego Football Club Activo 138 / 129 40% 1 23.10.2026 -
Mohamed-Ali Cho Hull City Activo 136 / 138 40% 3 21.10.2026 -
Wessam Abou Ali Columbus Crew Activo 119 / 142 40% 2 20.10.2026 -
Ibrahim Aliyu Houston Dynamo Activo 130 / 104 40% 1 19.10.2026 -
Preston Judd San Jose Earthquakes Activo 112 / 114 40% 1 18.10.2026 -
Victor Olatunji Real Salt Lake Activo 115 / 101 40% 2 16.10.2026 -
Timothy Tillman Los Angeles Football Club Activo 130 / 103 40% 1 16.10.2026 -
Germán Berterame Inter Miami CF Activo 124 / 147 40% 1 16.10.2026 -
Facundo Mura Inter Miami CF Activo 131 / 134 40% 2 13.10.2026 -
Pedro Porro Tottenham Activo 139 / 146 40% 1 13.10.2026 -
Igor Jesus Los Angeles Football Club Activo 124 / 119 40% 1 11.10.2026 -
Amin Boudri Los Angeles Football Club Activo 121 / 123 40% 1 09.10.2026 -
Ousséni Bouda San Jose Earthquakes Activo 111 / 112 40% 1 09.10.2026 -
Duncan McGuire Houston Dynamo Activo 130 / 111 40% 1 09.10.2026 -
Maclyn Biokpo Jenewari Rivers United Activo 112 / 98 40% 1 08.10.2026 -
Gabriel Lekan Kun Khalifat Activo 87 / 87 40% 1 08.10.2026 -
Alexander Aravena Portland Timbers Activo 136 / 123 40% 1 13.09.2026 -
Jimer Fory Portland Timbers Activo 122 / 110 40% 1 13.09.2026 -
Andrés Herrera Columbus Crew Activo 121 / 120 40% 1 10.09.2026 -
Daniel Pereira CF Montreal Activo 127 / 126 40% 1 10.09.2026 -
James Sands New York City Activo 113 / 108 40% 1 09.09.2026 -
Matheus Pereira Toronto FC Activo 124 / 114 40% 1 07.09.2026 -